Time;durP1;ratioP1;P1;durP2;ratioP2;P2;SDS_P1;SDS_P2;PMS_P1;PMS_P2;Temp;Humidity;BMP_temperature;BMP_pressure;BME280_temperature;BME280_humidity;BME280_pressure;Samples;Min_cycle;Max_cycle;Signal;HPM_P1;HPM_P2
2021/10/22 00:00:35;;;;;;;10.40;6.53;;;;;;;15.87;47.94;99249.20;1682490;84;21076;-66
2021/10/22 00:03:00;;;;;;;5.90;5.37;;;;;;;15.89;47.95;99254.33;1705582;83;21018;-62
2021/10/22 00:05:28;;;;;;;9.28;5.72;;;;;;;15.90;47.96;99254.63;1720965;83;21077;-63
2021/10/22 00:07:54;;;;;;;7.85;5.65;;;;;;;15.91;47.95;99250.32;1726910;83;21338;-63
2021/10/22 00:10:22;;;;;;;4.83;4.37;;;;;;;15.75;47.94;99222.46;1718741;83;21093;-62
2021/10/22 00:12:51;;;;;;;11.85;4.95;;;;;;;15.94;47.98;99251.72;1726892;83;21005;-61
2021/10/22 00:17:31;;;;;;;6.55;4.55;;;;;;;16.01;47.96;99251.00;1786427;78;22971;-63
2021/10/22 00:19:57;;;;;;;7.78;4.83;;;;;;;15.95;47.99;99254.16;1764183;80;21557;-62
2021/10/22 00:22:24;;;;;;;5.80;5.15;;;;;;;16.00;48.01;99260.66;1757439;78;21211;-63
2021/10/22 00:24:50;;;;;;;5.03;4.53;;;;;;;16.02;48.13;99251.80;1727943;83;21135;-60
2021/10/22 00:27:16;;;;;;;7.03;4.90;;;;;;;16.04;47.99;99244.30;1728532;82;21048;-60
2021/10/22 00:29:43;;;;;;;7.30;4.97;;;;;;;16.04;48.01;99244.30;1700753;83;21021;-61
2021/10/22 00:32:09;;;;;;;11.85;5.03;;;;;;;16.06;48.02;99251.04;1674993;84;21034;-61
2021/10/22 00:34:36;;;;;;;11.08;4.95;;;;;;;16.08;47.96;99244.88;1656318;85;21477;-61
2021/10/22 00:37:03;;;;;;;8.48;5.65;;;;;;;16.10;48.11;99248.13;1629131;86;21021;-60
2021/10/22 00:39:30;;;;;;;5.22;4.20;;;;;;;16.13;47.94;99244.14;1660757;84;21528;-60
2021/10/22 00:41:56;;;;;;;5.12;4.50;;;;;;;16.17;47.91;99240.42;1675393;84;21022;-61
2021/10/22 00:44:22;;;;;;;;;;;;;;;16.18;47.88;99238.00;1662504;84;21071;-60
2021/10/22 00:46:55;;;;;;;7.40;3.90;;;;;;;16.18;47.86;99244.20;1613058;87;20122;-61
2021/10/22 00:49:21;;;;;;;6.12;3.95;;;;;;;16.12;47.93;99240.65;1627333;87;21018;-65
2021/10/22 00:51:48;;;;;;;4.05;3.62;;;;;;;16.15;48.02;99238.78;1639231;87;21134;-62
2021/10/22 00:54:14;;;;;;;6.90;3.35;;;;;;;16.18;47.88;99246.06;1645364;87;21077;-62
2021/10/22 00:56:41;;;;;;;5.28;4.05;;;;;;;16.18;47.84;99240.17;1656677;86;21069;-63
2021/10/22 00:59:08;;;;;;;6.78;3.85;;;;;;;16.20;47.85;99241.24;1661437;84;21121;-64
2021/10/22 01:01:39;;;;;;;4.08;3.72;;;;;;;16.22;47.85;99241.29;1673730;85;21086;-63
2021/10/22 01:04:07;;;;;;;8.38;3.65;;;;;;;16.23;47.95;99238.06;1683363;85;21005;-75
2021/10/22 01:06:39;;;;;;;9.05;4.35;;;;;;;16.22;47.88;99248.52;1677383;85;21053;-64
2021/10/22 01:09:09;;;;;;;9.53;3.70;;;;;;;16.22;47.87;99245.83;1668932;85;21073;-63
2021/10/22 01:11:35;;;;;;;8.43;4.05;;;;;;;16.23;47.99;99250.16;1675058;84;21067;-63
2021/10/22 01:14:06;;;;;;;4.10;3.65;;;;;;;16.23;47.99;99250.16;1699402;84;21509;-64
2021/10/22 01:16:39;;;;;;;3.45;3.12;;;;;;;16.24;47.91;99258.52;1693573;83;21072;-62
2021/10/22 01:19:16;;;;;;;8.10;3.22;;;;;;;16.25;48.09;99266.84;1693559;83;21053;-64
2021/10/22 01:21:46;;;;;;;12.98;3.83;;;;;;;16.23;47.96;99272.47;1696493;83;21097;-62
2021/10/22 01:24:14;;;;;;;12.25;3.92;;;;;;;16.21;48.07;99267.08;1674366;83;21017;-63
2021/10/22 01:26:42;;;;;;;9.03;3.55;;;;;;;16.18;48.04;99267.06;1688000;84;20974;-62
2021/10/22 01:29:09;;;;;;;6.58;4.00;;;;;;;16.17;48.06;99280.74;1691637;84;20989;-61
2021/10/22 01:31:37;;;;;;;7.03;3.50;;;;;;;16.15;48.11;99287.17;1682461;84;21474;-61
2021/10/22 01:34:03;;;;;;;3.90;3.60;;;;;;;16.15;48.11;99293.89;1677694;83;21058;-62
2021/10/22 01:36:33;;;;;;;7.40;3.20;;;;;;;16.14;48.14;99292.28;1636988;86;21082;-61
2021/10/22 01:38:59;;;;;;;4.95;3.42;;;;;;;16.13;48.22;99293.33;1665508;84;21582;-62
2021/10/22 01:41:25;;;;;;;6.47;3.80;;;;;;;16.12;48.23;99289.55;1651793;84;21034;-61
2021/10/22 01:43:53;;;;;;;4.22;3.30;;;;;;;16.10;48.18;99291.13;1659339;84;21870;-62
2021/10/22 01:46:19;;;;;;;4.00;3.00;;;;;;;16.10;48.22;99291.67;1670980;83;21526;-63
2021/10/22 01:48:47;;;;;;;8.60;3.65;;;;;;;16.08;48.05;99291.92;1638045;86;21053;-61
2021/10/22 01:51:13;;;;;;;9.73;3.40;;;;;;;16.10;47.96;99305.92;1644185;86;20993;-60
2021/10/22 01:53:39;;;;;;;4.87;3.58;;;;;;;16.12;47.96;99313.73;1664632;85;21073;-60
2021/10/22 01:56:07;;;;;;;5.15;2.90;;;;;;;16.12;47.86;99323.98;1656568;85;21018;-60
2021/10/22 01:58:33;;;;;;;5.03;3.33;;;;;;;16.13;47.74;99321.56;1674190;84;21355;-61
2021/10/22 02:01:01;;;;;;;4.03;3.27;;;;;;;16.13;47.74;99326.94;1673064;83;21096;-61
2021/10/22 02:03:28;;;;;;;2.98;2.77;;;;;;;16.13;47.65;99328.28;1663475;85;21030;-62
2021/10/22 02:05:55;;;;;;;4.40;3.50;;;;;;;16.12;47.59;99330.70;1680395;84;21068;-63
2021/10/22 02:08:21;;;;;;;7.05;3.83;;;;;;;16.11;47.65;99333.63;1679215;84;21097;-61
2021/10/22 02:10:47;;;;;;;4.75;3.25;;;;;;;16.10;47.58;99336.02;1697285;84;21059;-62
2021/10/22 02:13:13;;;;;;;3.75;2.92;;;;;;;16.09;47.64;99335.22;1669387;84;21571;-64
2021/10/22 02:15:39;;;;;;;3.33;2.98;;;;;;;16.07;47.53;99338.69;1688949;83;21066;-61
2021/10/22 02:18:05;;;;;;;;;;;;;;;16.07;47.42;99345.41;1700000;83;21014;-61
2021/10/22 02:20:32;;;;;;;7.03;3.25;;;;;;;16.05;47.27;99343.51;1700388;83;20107;-59
2021/10/22 02:22:58;;;;;;;5.87;3.10;;;;;;;15.99;47.37;99348.51;1659630;84;21061;-60
2021/10/22 02:25:25;;;;;;;8.03;3.40;;;;;;;15.97;47.32;99347.95;1682455;83;21090;-61
2021/10/22 02:27:52;;;;;;;4.70;2.60;;;;;;;15.97;47.29;99347.95;1699322;83;21006;-63
2021/10/22 02:30:21;;;;;;;4.53;2.15;;;;;;;15.95;47.16;99353.59;1680702;83;21026;-63
2021/10/22 02:32:48;;;;;;;8.18;2.80;;;;;;;15.95;47.11;99356.28;1693507;83;21583;-61
2021/10/22 02:35:14;;;;;;;6.87;2.60;;;;;;;15.89;46.92;99343.01;1633452;83;21053;-65
2021/10/22 02:37:42;;;;;;;9.70;2.75;;;;;;;15.95;46.67;99369.72;1642849;86;21189;-61
2021/10/22 02:40:10;;;;;;;9.50;2.45;;;;;;;15.96;46.57;99369.18;1657022;85;21058;-61
2021/10/22 02:42:36;;;;;;;2.65;2.45;;;;;;;15.96;46.50;99359.23;1639623;86;21513;-61
2021/10/22 02:45:03;;;;;;;7.20;1.85;;;;;;;15.98;46.08;99372.43;1653520;84;21064;-65
2021/10/22 02:47:30;;;;;;;4.67;2.08;;;;;;;15.82;45.80;99354.45;1652650;86;21069;-62
2021/10/22 02:49:56;;;;;;;3.77;2.52;;;;;;;15.95;45.70;99381.81;1656251;85;21493;-62
2021/10/22 02:52:22;;;;;;;;;;;;;;;15.91;45.63;99377.16;1673467;84;21048;-61
2021/10/22 02:54:48;;;;;;;2.17;1.55;;;;;;;15.86;45.59;99391.35;1673859;84;20185;-61
2021/10/22 02:57:14;;;;;;;3.30;1.62;;;;;;;15.76;45.83;99391.18;1667244;84;21145;-62
2021/10/22 02:59:40;;;;;;;2.00;1.62;;;;;;;15.72;45.76;99392.16;1642814;86;21062;-60
2021/10/22 03:02:06;;;;;;;5.25;1.85;;;;;;;15.67;45.75;99401.51;1666555;84;20998;-61
2021/10/22 03:04:33;;;;;;;;;;;;;;;15.63;45.77;99408.95;1683246;84;21015;-61
2021/10/22 03:06:59;;;;;;;3.22;1.40;;;;;;;15.60;45.69;99411.59;1668312;84;20108;-63
2021/10/22 03:09:26;;;;;;;3.37;1.30;;;;;;;15.50;45.76;99416.78;1664032;86;21051;-61
2021/10/22 03:11:54;;;;;;;3.40;1.00;;;;;;;15.45;45.77;99411.35;1669019;84;21099;-65
2021/10/22 03:14:20;;;;;;;;;;;;;;;15.42;45.68;99414.52;1681846;84;21391;-59
2021/10/22 03:16:48;;;;;;;7.87;1.37;;;;;;;15.40;45.66;99420.66;1676441;84;20125;-60
2021/10/22 03:19:14;;;;;;;8.33;1.05;;;;;;;15.33;45.81;99418.95;1678001;84;21576;-60
2021/10/22 03:21:41;;;;;;;1.87;1.10;;;;;;;15.33;45.88;99432.38;1679469;84;21037;-63
2021/10/22 03:24:08;;;;;;;2.67;1.07;;;;;;;15.32;45.97;99426.70;1698250;83;21135;-63
2021/10/22 03:26:35;;;;;;;6.45;1.67;;;;;;;15.31;46.10;99430.45;1708613;83;21074;-70
2021/10/22 03:29:02;;;;;;;4.97;1.95;;;;;;;15.30;46.24;99430.70;1670873;84;21065;-59
2021/10/22 03:31:29;;;;;;;4.42;1.37;;;;;;;15.27;46.38;99431.16;1674802;85;21060;-62
2021/10/22 03:33:56;;;;;;;7.47;1.40;;;;;;;15.25;46.53;99436.77;1661597;84;21535;-61
2021/10/22 03:36:22;;;;;;;1.42;1.30;;;;;;;15.23;46.61;99433.52;1706373;83;21057;-64
2021/10/22 03:38:50;;;;;;;1.37;1.27;;;;;;;15.20;46.59;99440.73;1694406;82;21553;-62
2021/10/22 03:41:17;;;;;;;7.22;1.72;;;;;;;15.19;46.68;99435.86;1700449;83;21035;-61
2021/10/22 03:43:44;;;;;;;8.88;2.02;;;;;;;15.21;46.70;99433.48;1667559;85;21083;-61
2021/10/22 03:46:11;;;;;;;1.35;1.12;;;;;;;15.21;46.80;99432.95;1655278;83;21013;-61
2021/10/22 03:48:37;;;;;;;4.53;1.80;;;;;;;15.20;47.07;99439.38;1664907;84;21089;-62
2021/10/22 03:51:03;;;;;;;2.40;1.67;;;;;;;15.18;47.26;99444.98;1661332;84;21645;-63
2021/10/22 03:53:29;;;;;;;4.22;1.92;;;;;;;15.15;47.33;99444.66;1664457;84;21124;-61
2021/10/22 03:55:56;;;;;;;2.35;1.90;;;;;;;15.14;47.51;99456.42;1677785;84;21097;-61
2021/10/22 03:58:21;;;;;;;10.90;3.42;;;;;;;15.12;47.75;99457.20;1685695;84;21524;-66
2021/10/22 04:00:48;;;;;;;4.22;2.30;;;;;;;15.09;47.93;99461.72;1683991;84;21092;-60
2021/10/22 04:03:14;;;;;;;;;;;;;;;15.07;48.05;99478.56;1705784;83;21556;-62
2021/10/22 04:05:44;;;;;;;2.15;1.77;;;;;;;15.04;48.22;99475.84;1694060;84;20142;-63
2021/10/22 04:08:10;;;;;;;4.62;2.30;;;;;;;14.95;48.52;99469.22;1669539;85;21497;-62
2021/10/22 04:10:36;;;;;;;5.03;2.67;;;;;;;14.90;48.51;99470.45;1678609;85;21156;-62
2021/10/22 04:13:03;;;;;;;12.90;3.08;;;;;;;14.88;48.58;99477.92;1703594;83;21196;-66
2021/10/22 04:15:29;;;;;;;;;;;;;;;14.86;48.59;99481.38;1714432;84;21607;-61
2021/10/22 04:17:57;;;;;;;4.35;2.10;;;;;;;14.83;48.56;99478.65;1707017;84;20171;-61
2021/10/22 04:20:24;;;;;;;4.45;2.02;;;;;;;14.74;48.71;99485.43;1696369;84;21195;-65
2021/10/22 04:22:50;;;;;;;4.33;1.95;;;;;;;14.72;48.68;99491.03;1701574;84;21046;-60
2021/10/22 04:25:16;;;;;;;;;;;;;;;14.70;48.83;99497.16;1696297;84;21034;-61
2021/10/22 04:27:42;;;;;;;8.78;2.58;;;;;;;14.67;48.81;99489.56;1683909;83;20530;-61
2021/10/22 04:30:09;;;;;;;;;;;;;;;14.60;48.91;99500.44;1698598;84;21026;-74
2021/10/22 04:32:37;;;;;;;5.83;2.10;;;;;;;14.60;49.02;99504.46;1701642;84;20130;-62
2021/10/22 04:35:04;;;;;;;11.73;2.62;;;;;;;14.52;49.07;99503.96;1698508;84;21030;-67
2021/10/22 04:37:34;;;;;;;8.58;2.35;;;;;;;14.51;49.22;99501.81;1699376;84;21306;-62
2021/10/22 04:42:49;;;;;;;6.37;1.63;;;;;;;14.45;49.08;99509.47;1691292;84;21025;-63
2021/10/22 04:45:19;;;;;;;1.65;1.55;;;;;;;14.40;48.86;99502.64;1688389;84;21103;-61
2021/10/22 04:47:46;;;;;;;10.35;2.15;;;;;;;14.38;48.80;99504.20;1671137;85;21025;-61
2021/10/22 04:50:12;;;;;;;5.92;1.75;;;;;;;14.39;48.78;99514.39;1657799;85;21540;-62
2021/10/22 04:52:41;;;;;;;7.42;1.65;;;;;;;14.39;48.63;99511.21;1659205;85;21478;-62
2021/10/22 04:55:10;;;;;;;9.55;1.60;;;;;;;14.41;48.28;99527.87;1662734;85;21041;-60
2021/10/22 04:57:36;;;;;;;4.42;1.27;;;;;;;14.41;48.33;99537.27;1692545;83;21083;-60
2021/10/22 05:00:06;;;;;;;5.65;1.42;;;;;;;14.41;48.33;99540.48;1692610;83;21039;-64
2021/10/22 05:02:34;;;;;;;5.42;1.47;;;;;;;14.40;48.05;99542.85;1683471;84;21517;-62
2021/10/22 05:05:00;;;;;;;13.60;1.98;;;;;;;14.42;47.98;99546.11;1668406;84;21017;-61
2021/10/22 05:07:26;;;;;;;4.65;1.55;;;;;;;14.49;47.80;99546.82;1692022;83;21054;-64
2021/10/22 05:09:52;;;;;;;5.10;1.45;;;;;;;14.69;47.72;99558.57;1667085;85;21102;-62
2021/10/22 05:12:19;;;;;;;4.90;2.35;;;;;;;15.07;47.00;99561.26;1669101;85;21055;-62
2021/10/22 05:14:45;;;;;;;5.35;1.55;;;;;;;15.48;46.38;99562.08;1703454;83;21464;-63
2021/10/22 05:17:11;;;;;;;8.68;1.87;;;;;;;15.99;45.61;99554.12;1675137;84;21580;-66
2021/10/22 05:19:38;;;;;;;10.03;1.55;;;;;;;16.41;44.69;99560.45;1694250;83;21017;-62
2021/10/22 05:22:05;;;;;;;8.55;2.17;;;;;;;16.66;44.07;99562.70;1677503;84;21046;-62
2021/10/22 05:24:33;;;;;;;11.18;1.85;;;;;;;16.84;43.51;99568.88;1689844;84;21062;-70
2021/10/22 05:27:00;;;;;;;5.00;1.60;;;;;;;17.02;43.18;99571.29;1695991;84;21079;-64
2021/10/22 05:29:26;;;;;;;2.58;1.70;;;;;;;17.00;42.82;99578.80;1695912;83;22278;-64
2021/10/22 05:31:52;;;;;;;;;;;;;;;17.00;42.82;99578.80;1697906;84;21101;-63
2021/10/22 05:34:23;;;;;;;5.60;2.12;;;;;;;16.90;42.66;99582.72;1686219;84;20118;-63
2021/10/22 05:36:51;;;;;;;9.08;1.85;;;;;;;16.70;42.90;99589.39;1693753;84;21107;-64
2021/10/22 05:39:19;;;;;;;2.67;1.22;;;;;;;16.69;43.06;99596.39;1666499;85;21114;-63
2021/10/22 05:41:50;;;;;;;4.78;2.27;;;;;;;16.88;43.19;99601.00;1661336;84;21006;-64
2021/10/22 05:44:20;;;;;;;3.75;1.10;;;;;;;17.34;42.27;99600.77;1655503;85;21099;-65
2021/10/22 05:46:55;;;;;;;3.45;1.52;;;;;;;17.74;41.05;99609.03;1674612;85;21465;-73
2021/10/22 05:49:24;;;;;;;3.45;1.15;;;;;;;17.89;40.03;99607.36;1653797;85;21158;-62
2021/10/22 05:51:52;;;;;;;2.55;0.88;;;;;;;17.85;39.55;99615.66;1654127;85;20990;-62
2021/10/22 05:54:19;;;;;;;3.42;0.60;;;;;;;17.80;39.26;99611.55;1674257;85;21138;-67
2021/10/22 05:56:45;;;;;;;3.22;0.70;;;;;;;17.70;39.38;99612.77;1664255;82;21028;-64
2021/10/22 05:59:11;;;;;;;2.15;0.55;;;;;;;17.63;39.75;99612.98;1658675;84;21121;-62
2021/10/22 06:01:39;;;;;;;7.15;0.60;;;;;;;17.57;38.87;99607.77;1665040;84;21131;-65
2021/10/22 06:04:05;;;;;;;2.45;0.60;;;;;;;17.41;38.88;99611.64;1662136;84;21515;-72
2021/10/22 06:06:32;;;;;;;9.38;1.47;;;;;;;17.28;38.45;99619.56;1681468;83;21124;-64
2021/10/22 06:08:59;;;;;;;3.65;0.47;;;;;;;17.19;38.29;99613.52;1673608;83;21121;-64
2021/10/22 06:11:26;;;;;;;6.00;0.30;;;;;;;17.10;37.52;99623.89;1668063;83;21141;-64
2021/10/22 06:13:53;;;;;;;10.20;0.65;;;;;;;16.95;37.35;99616.95;1692824;83;21518;-63
2021/10/22 06:16:22;;;;;;;14.03;1.15;;;;;;;16.82;37.66;99616.26;1694180;83;21303;-73
2021/10/22 06:18:51;;;;;;;8.53;0.45;;;;;;;16.74;37.76;99617.46;1669852;84;21099;-64
2021/10/22 06:24:00;;;;;;;5.17;0.37;;;;;;;16.77;37.95;99626.10;1643373;86;21027;-66
2021/10/22 06:26:28;;;;;;;4.95;0.40;;;;;;;16.77;37.76;99620.18;1645083;86;21136;-65
2021/10/22 06:28:55;;;;;;;2.40;0.47;;;;;;;16.73;38.31;99624.43;1644967;86;21030;-65
2021/10/22 06:31:22;;;;;;;6.60;0.25;;;;;;;16.65;38.33;99631.05;1645942;87;21093;-65
2021/10/22 06:33:50;;;;;;;4.53;0.62;;;;;;;16.58;38.68;99624.20;1647568;85;21052;-63
2021/10/22 06:36:16;;;;;;;2.58;0.20;;;;;;;16.48;38.59;99628.36;1647184;85;21766;-63
2021/10/22 06:38:43;;;;;;;3.45;0.30;;;;;;;16.36;38.77;99631.64;1646739;85;20979;-63
2021/10/22 06:41:10;;;;;;;5.28;0.82;;;;;;;16.26;39.00;99624.76;1646363;85;21077;-65
2021/10/22 06:43:38;;;;;;;3.55;0.28;;;;;;;16.21;39.39;99633.54;1644959;85;21099;-65
2021/10/22 06:46:07;;;;;;;5.37;0.55;;;;;;;16.22;39.84;99631.66;1642866;86;21044;-64
2021/10/22 06:48:35;;;;;;;4.80;0.50;;;;;;;16.23;40.02;99631.95;1645770;86;21045;-62
2021/10/22 06:51:02;;;;;;;5.22;0.40;;;;;;;16.27;40.32;99629.06;1645990;86;21112;-72
2021/10/22 06:53:29;;;;;;;4.83;0.60;;;;;;;16.29;40.43;99629.63;1645879;86;21041;-64
2021/10/22 06:55:55;;;;;;;4.40;0.93;;;;;;;16.29;40.77;99635.02;1656692;84;21100;-64
2021/10/22 06:58:21;;;;;;;;;;;;;;;16.32;40.80;99636.69;1682491;84;21046;-65
2021/10/22 07:00:50;;;;;;;2.25;1.10;;;;;;;16.39;41.10;99628.48;1671193;84;20146;-64
2021/10/22 07:03:26;;;;;;;10.63;1.17;;;;;;;16.32;41.07;99622.43;1696120;83;21804;-63
2021/10/22 07:08:24;;;;;;;6.37;1.52;;;;;;;16.31;41.21;99635.07;1698371;83;21086;-62
2021/10/22 07:10:51;;;;;;;2.75;0.93;;;;;;;16.35;41.32;99629.48;1663600;84;21034;-62
2021/10/22 07:13:18;;;;;;;5.70;1.27;;;;;;;16.41;41.16;99629.05;1663498;85;21314;-64
2021/10/22 07:15:44;;;;;;;4.30;0.95;;;;;;;16.47;41.06;99636.67;1691294;84;21133;-65
2021/10/22 07:18:10;;;;;;;10.23;0.88;;;;;;;16.53;40.99;99625.73;1656189;85;21093;-62
2021/10/22 07:20:37;;;;;;;4.03;0.78;;;;;;;16.62;40.92;99634.21;1669340;85;21065;-63
2021/10/22 07:23:08;;;;;;;6.12;1.60;;;;;;;16.69;40.78;99637.56;1671021;85;21021;-67
2021/10/22 07:25:39;;;;;;;7.15;1.50;;;;;;;16.73;40.37;99645.42;1652656;86;21077;-64
2021/10/22 07:28:11;;;;;;;6.50;1.17;;;;;;;16.76;40.52;99638.72;1646378;85;21042;-63
2021/10/22 07:30:44;;;;;;;7.87;1.27;;;;;;;16.80;40.52;99641.23;1645440;85;21529;-71
2021/10/22 07:33:14;;;;;;;9.10;1.30;;;;;;;16.85;40.56;99637.28;1641478;85;21041;-65
2021/10/22 07:35:41;;;;;;;5.37;2.02;;;;;;;16.84;40.08;99645.59;1633848;86;21084;-63
2021/10/22 07:38:12;;;;;;;8.65;1.65;;;;;;;16.84;40.08;99645.59;1637632;86;21018;-64
2021/10/22 07:40:43;;;;;;;6.33;1.92;;;;;;;16.81;40.38;99649.56;1639064;86;20995;-64
2021/10/22 07:43:10;;;;;;;11.08;2.37;;;;;;;16.85;40.07;99652.62;1639439;86;21081;-67
2021/10/22 07:45:36;;;;;;;5.72;1.60;;;;;;;16.88;40.13;99646.22;1650410;86;21100;-62
2021/10/22 07:48:03;;;;;;;4.20;0.70;;;;;;;16.92;39.85;99646.00;1643942;86;21118;-63
2021/10/22 07:50:29;;;;;;;4.53;1.12;;;;;;;16.92;39.53;99651.38;1643599;86;21192;-63
2021/10/22 07:52:55;;;;;;;;;;;;;;;16.90;39.03;99653.51;1614602;87;21063;-63
2021/10/22 07:55:23;;;;;;;;;;;;;;;16.82;39.01;99656.63;1646465;86;20200;-64
2021/10/22 07:57:49;;;;;;;;;;;;;;;16.69;38.61;99642.94;1630999;86;20150;-62
2021/10/22 08:00:15;;;;;;;;;;;;;;;16.58;38.46;99647.88;1646416;86;20110;-64
2021/10/22 08:02:42;;;;;;;;;;;;;;;16.45;38.81;99646.32;1666976;85;20201;-64
2021/10/22 08:05:09;;;;;;;;;;;;;;;16.35;38.73;99660.42;1667028;85;20430;-63
2021/10/22 08:07:38;;;;;;;;;;;;;;;16.32;39.00;99656.05;1673222;85;20160;-64
2021/10/22 08:10:05;;;;;;;;;;;;;;;16.30;37.87;99656.28;1661451;86;20183;-62
2021/10/22 08:12:31;;;;;;;;;;;;;;;16.31;37.63;99654.41;1655947;85;20425;-63
2021/10/22 08:14:58;;;;;;;;;;;;;;;16.35;37.65;99660.95;1664231;85;20158;-62
2021/10/22 08:17:25;;;;;;;;;;;;;;;16.39;37.44;99672.02;1663501;85;20187;-63
2021/10/22 08:19:56;;;;;;;;;;;;;;;16.43;37.43;99681.25;1663765;85;20167;-61
2021/10/22 08:25:07;;;;;;;;;;;;;;;16.48;36.94;99681.31;1644704;85;20163;-64
2021/10/22 08:27:39;;;;;;;;;;;;;;;16.46;36.25;99676.71;1644974;86;20475;-60
2021/10/22 08:30:09;;;;;;;;;;;;;;;16.38;36.05;99667.71;1633353;86;20107;-61
2021/10/22 08:32:36;;;;;;;;;;;;;;;16.30;36.39;99679.68;1653662;85;20121;-63
2021/10/22 08:35:03;;;;;;;;;;;;;;;16.23;36.19;99674.98;1649128;86;20108;-63
2021/10/22 08:37:38;;;;;;;;;;;;;;;16.16;36.75;99668.39;1649705;86;20135;-64
2021/10/22 08:40:06;;;;;;;;;;;;;;;16.12;36.31;99681.53;1639824;86;20421;-67
2021/10/22 08:42:32;;;;;;;;;;;;;;;16.10;36.74;99684.95;1649759;86;20513;-64
2021/10/22 08:44:58;;;;;;;;;;;;;;;16.13;36.93;99684.48;1660995;85;20168;-63
2021/10/22 08:47:29;;;;;;;;;;;;;;;16.20;36.83;99684.86;1674088;85;20451;-62
2021/10/22 08:50:04;;;;;;;;;;;;;;;15.94;36.86;99650.27;1664164;85;20141;-64
2021/10/22 08:52:32;;;;;;;;;;;;;;;16.29;36.90;99680.72;1658776;85;20137;-63
2021/10/22 08:55:00;;;;;;;;;;;;;;;16.37;36.75;99687.58;1656456;85;20444;-67
2021/10/22 08:57:26;;;;;;;;;;;;;;;16.50;36.41;99692.65;1654173;85;20169;-61
2021/10/22 08:59:57;;;;;;;;;;;;;;;16.55;36.13;99685.48;1662238;85;20132;-63
2021/10/22 09:02:22;;;;;;;;;;;;;;;16.61;35.89;99688.27;1641046;86;20161;-63
2021/10/22 09:04:49;;;;;;;;;;;;;;;16.67;36.00;99689.97;1663277;85;20222;-64
2021/10/22 09:07:17;;;;;;;;;;;;;;;16.73;35.97;99693.05;1672030;85;20109;-63
2021/10/22 09:09:45;;;;;;;;;;;;;;;16.76;35.84;99681.78;1679061;84;20183;-68
2021/10/22 09:12:13;;;;;;;;;;;;;;;16.79;35.85;99671.08;1681866;84;20402;-63
2021/10/22 09:14:59;;;;;;;;;;;;;;;16.80;36.09;99681.59;1640509;86;20412;-63
2021/10/22 09:17:39;;;;;;;;;;;;;;;16.80;35.65;99683.45;1653983;85;20114;-64
2021/10/22 09:20:07;;;;;;;;;;;;;;;16.79;35.78;99679.15;1662196;85;20116;-65
2021/10/22 09:22:34;;;;;;;;;;;;;;;16.76;35.69;99668.86;1655584;85;20131;-72
2021/10/22 09:25:06;;;;;;;;;;;;;;;16.68;35.28;99687.04;1669285;85;20182;-64
2021/10/22 09:27:42;;;;;;;;;;;;;;;16.58;35.65;99690.11;1675587;84;20144;-66
2021/10/22 09:30:30;;;;;;;;;;;;;;;16.54;35.87;99689.78;1674020;84;20136;-64
2021/10/22 09:33:01;;;;;;;;;;;;;;;16.54;35.70;99683.06;1634796;86;20137;-62
2021/10/22 09:35:36;;;;;;;;;;;;;;;16.23;35.55;99653.47;1667256;85;20142;-64
2021/10/22 09:38:27;;;;;;;;;;;;;;;16.52;35.44;99695.40;1668382;85;20142;-63
2021/10/22 09:41:04;;;;;;;;;;;;;;;16.46;35.44;99703.11;1662177;85;20153;-63
2021/10/22 09:43:36;;;;;;;;;;;;;;;16.39;35.71;99706.98;1668637;85;20138;-62
2021/10/22 09:46:12;;;;;;;;;;;;;;;16.32;35.80;99701.77;1690079;83;20139;-64
2021/10/22 09:48:42;;;;;;;;;;;;;;;16.33;36.02;99701.53;1693966;83;20144;-64
2021/10/22 09:51:33;;;;;;;;;;;;;;;16.35;36.33;99694.03;1687576;83;20131;-64
2021/10/22 09:54:11;;;;;;;;;;;;;;;16.42;36.21;99704.63;1689870;83;20175;-63
2021/10/22 09:56:41;;;;;;;;;;;;;;;16.50;36.11;99702.06;1673209;84;20127;-64
2021/10/22 09:59:10;;;;;;;;;;;;;;;16.61;36.11;99700.38;1666927;85;20149;-65
2021/10/22 10:01:41;;;;;;;;;;;;;;;16.71;35.97;99706.74;1650992;85;20111;-65
2021/10/22 10:04:09;;;;;;;;;;;;;;;16.78;35.62;99693.11;1655456;85;20126;-64
2021/10/22 10:06:37;;;;;;;;;;;;;;;16.78;35.19;99691.77;1659849;85;20134;-64
2021/10/22 10:09:06;;;;;;;;;;;;;;;16.77;35.19;99700.11;1683240;84;20099;-62
2021/10/22 10:11:32;;;;;;;;;;;;;;;16.77;35.00;99700.91;1661462;84;20173;-63
2021/10/22 10:14:00;;;;;;;;;;;;;;;16.72;34.88;99712.94;1669039;84;20156;-61
2021/10/22 10:16:30;;;;;;;;;;;;;;;16.63;35.11;99708.50;1681194;84;20251;-66
2021/10/22 10:19:23;;;;;;;;;;;;;;;16.61;35.27;99715.17;1670862;85;20130;-63
2021/10/22 10:21:56;;;;;;;;;;;;;;;16.61;35.35;99711.94;1638114;85;20167;-65
2021/10/22 10:24:31;;;;;;;;;;;;;;;16.60;35.22;99705.48;1653584;85;20194;-63
2021/10/22 10:27:06;;;;;;;;;;;;;;;16.60;35.25;99704.14;1679255;84;20127;-67
2021/10/22 10:29:36;;;;;;;;;;;;;;;16.63;34.89;99695.05;1678870;84;20150;-65
2021/10/22 10:32:07;;;;;;;;;;;;;;;16.67;34.90;99707.45;1660897;85;20205;-63
2021/10/22 10:34:37;;;;;;;;;;;;;;;16.70;34.64;99717.75;1685272;84;20145;-63
2021/10/22 10:37:05;;;;;;;;;;;;;;;16.71;34.61;99722.08;1679664;84;20152;-65
2021/10/22 10:39:44;;;;;;;;;;;;;;;16.72;34.57;99696.78;1667620;84;20139;-66
2021/10/22 10:42:33;;;;;;;;;;;;;;;16.70;34.31;99719.09;1684734;84;20155;-64
2021/10/22 10:45:02;;;;;;;;;;;;;;;16.63;34.47;99711.20;1659849;85;20106;-69
2021/10/22 10:47:34;;;;;;;;;;;;;;;16.63;34.64;99715.73;1655746;85;20106;-63
2021/10/22 10:50:01;;;;;;;;;;;;;;;16.61;34.47;99719.20;1673733;84;20406;-64
2021/10/22 10:52:44;;;;;;;;;;;;;;;16.55;34.74;99706.20;1682130;84;20141;-64
2021/10/22 10:55:24;;;;;;;;;;;;;;;16.51;34.55;99718.50;1654462;85;20121;-63
2021/10/22 10:57:53;;;;;;;;;;;;;;;16.48;34.84;99706.88;1682477;85;20129;-65
2021/10/22 11:00:22;;;;;;;;;;;;;;;16.46;34.84;99715.21;1688723;84;20143;-64
2021/10/22 11:03:04;;;;;;;;;;;;;;;16.48;34.90;99718.98;1694575;85;20152;-64
2021/10/22 11:05:50;;;;;;;;;;;;;;;16.50;34.90;99710.97;1695076;84;20523;-66
2021/10/22 11:08:23;;;;;;;;;;;;;;;16.53;35.00;99713.70;1687495;85;20138;-64
2021/10/22 11:11:26;;;;;;;;;;;;;;;16.51;35.08;99719.31;1679870;84;20973;-64
2021/10/22 11:13:59;;;;;;;;;;;;;;;16.54;35.13;99724.22;1695393;84;20132;-64
2021/10/22 11:16:44;;;;;;;;;;;;;;;16.61;35.06;99728.62;1680514;85;20176;-65
2021/10/22 11:19:15;;;;;;;;;;;;;;;16.64;34.97;99729.48;1680292;85;20146;-64
2021/10/22 11:21:54;;;;;;;;;;;;;;;16.70;34.93;99732.01;1667871;85;20166;-65
2021/10/22 11:24:26;;;;;;;;;;;;;;;16.76;34.54;99715.95;1705208;84;20141;-63
2021/10/22 11:26:56;;;;;;;;;;;;;;;16.79;34.46;99730.28;1690225;85;20128;-65
2021/10/22 11:29:25;;;;;;;;;;;;;;;16.81;34.35;99724.92;1681884;84;20164;-66
2021/10/22 11:31:58;;;;;;;;;;;;;;;16.85;34.21;99737.40;1683622;85;20528;-64
2021/10/22 11:34:28;;;;;;;;;;;;;;;16.80;34.28;99734.08;1682214;84;20179;-65
2021/10/22 11:37:05;;;;;;;;;;;;;;;16.76;34.50;99730.22;1690192;85;20134;-67
2021/10/22 11:39:39;;;;;;;;;;;;;;;16.75;34.59;99739.37;1696186;84;20110;-64
2021/10/22 11:42:12;;;;;;;;;;;;;;;16.71;34.42;99738.23;1689268;85;20533;-70
2021/10/22 11:44:42;;;;;;;;;;;;;;;16.69;34.40;99742.50;1693365;84;20175;-64
2021/10/22 11:47:09;;;;;;;;;;;;;;;16.72;34.20;99738.50;1687534;85;20163;-64
2021/10/22 11:49:37;;;;;;;;;;;;;;;16.72;33.64;99737.16;1677621;85;20141;-64
2021/10/22 11:52:06;;;;;;;;;;;;;;;16.66;33.75;99744.32;1687418;85;20121;-64
2021/10/22 11:54:34;;;;;;;;;;;;;;;16.62;33.80;99743.18;1687375;84;20135;-64
2021/10/22 11:57:05;;;;;;;;;;;;;;;16.59;33.88;99748.23;1689970;85;20132;-65
2021/10/22 11:59:31;;;;;;;;;;;;;;;16.57;34.17;99737.70;1690459;85;20186;-66
2021/10/22 12:02:06;;;;;;;;;;;;;;;16.57;34.37;99750.34;1668944;84;20137;-64
2021/10/22 12:04:32;;;;;;;;;;;;;;;16.59;34.27;99737.47;1660270;85;20113;-65
2021/10/22 12:07:07;;;;;;;;;;;;;;;16.60;33.98;99748.53;1661215;85;20219;-66
2021/10/22 12:09:36;;;;;;;;;;;;;;;16.23;33.79;99698.64;1663517;86;20144;-63
2021/10/22 12:12:06;;;;;;;;;;;;;;;16.46;33.85;99748.83;1666952;85;20135;-63
2021/10/22 12:14:46;;;;;;;;;;;;;;;16.41;33.85;99763.52;1687989;85;20124;-63
2021/10/22 12:17:16;;;;;;;;;;;;;;;16.37;33.91;99767.76;1679705;85;20181;-64
2021/10/22 12:19:43;;;;;;;;;;;;;;;16.36;34.02;99771.49;1686462;85;20170;-64
2021/10/22 12:22:12;;;;;;;;;;;;;;;16.34;33.98;99775.77;1691981;84;20092;-63